Avondale, Louisiana
Current Conditions -  °F | °C
As of 2:53 AM on Sunday 26 Oct 2014 (Local Time) from KMSY Reporting Station
Clear Clear  
Wind Chill: 62°   Ceiling: Unl
Heat Index: 62°   Visibility: 10mi
Dew Point: 57°   Wind: 0mph
Humidity: 84%   Direction: NA
Pressure: 30.05"   Gusts: NA
Location:  29.9137°N, 90.2078°W
Report Text: KMSY 260753Z 00000KT 10SM CLR 17/14 A3005 RMK AO2 SLP178 T01670139
Loading
Personal Weather Stations






























Interactive Weather Map
Tropical Storm Tracking
New forecast layout! Learn more

10-Day Weather Forecast

Advertisements
Track Severe Weather on mobile